Terminal Aerodrome Forecast
Issued by NWS

Home | Current Version | Previous Version | Text Only | Print | Product List | Glossary On
Versions: 1 2 3 4 5 6 7 8 9 10 11 12 13 14 15 16 17 18 19 20 21 22 23 24 25 26 27 28 29 30 31
000
FTUS46 KMTR 050250 AAA
TAFSFO
TAF AMD
KSFO 050250Z 0503/0606 26022G30KT P6SM SKC
     FM050400 27017G24KT P6SM FEW015
     FM050800 27012KT P6SM FEW015
     FM051200 23005KT P6SM FEW015
     FM052100 25015G25KT P6SM FEW015
     FM060400 25010KT P6SM FEW015=

USA.gov is the U.S. government's official web portal to all federal, state and local government web resources and services.